createdAt,value
2024-01-30T00:03:25.640Z,2.90
2024-01-30T00:08:28.210Z,3.00
2024-01-30T00:13:30.761Z,3.00
2024-01-30T00:18:33.182Z,3.00
2024-01-30T00:23:35.737Z,3.00
2024-01-30T00:28:38.910Z,3.00
2024-01-30T00:33:41.678Z,3.10
2024-01-30T00:38:44.295Z,3.00
2024-01-30T00:43:46.760Z,3.00
2024-01-30T00:48:49.320Z,3.00
2024-01-30T00:53:52.204Z,2.90
2024-01-30T00:58:54.678Z,2.90
2024-01-30T01:03:57.327Z,3.00
2024-01-30T01:09:01.641Z,3.00
2024-01-30T01:14:06.134Z,3.00
2024-01-30T01:19:08.834Z,3.00
2024-01-30T01:24:11.514Z,3.00
2024-01-30T01:29:14.361Z,3.10
2024-01-30T01:34:17.077Z,3.00
2024-01-30T01:39:20.124Z,3.00
2024-01-30T01:44:22.744Z,3.00
2024-01-30T01:49:28.556Z,3.00
2024-01-30T01:54:31.987Z,3.00
2024-01-30T01:59:34.452Z,3.00
2024-01-30T02:04:37.364Z,3.00
2024-01-30T02:09:39.947Z,3.10
2024-01-30T02:14:47.312Z,3.10
2024-01-30T02:19:50.379Z,3.00
2024-01-30T02:24:53.055Z,3.10
2024-01-30T02:29:55.838Z,3.00
2024-01-30T02:34:58.477Z,3.00
2024-01-30T02:40:01.112Z,3.00
2024-01-30T02:45:03.863Z,3.00
2024-01-30T02:50:07.083Z,3.00
2024-01-30T02:55:09.921Z,3.10
2024-01-30T03:00:13.132Z,2.90
2024-01-30T03:05:30.410Z,2.80
2024-01-30T03:10:33.104Z,2.80
2024-01-30T03:15:35.874Z,2.70
2024-01-30T03:20:38.542Z,2.60
2024-01-30T03:25:41.210Z,2.60
2024-01-30T03:30:43.948Z,2.60
2024-01-30T03:35:46.490Z,2.60
2024-01-30T03:40:48.959Z,2.60
2024-01-30T03:45:51.455Z,2.70
2024-01-30T03:50:54.032Z,2.70
2024-01-30T03:55:56.933Z,2.70
2024-01-30T04:00:59.523Z,2.80
2024-01-30T04:06:02.490Z,2.70
2024-01-30T04:11:06.834Z,2.70
2024-01-30T04:16:09.410Z,2.70
2024-01-30T04:21:11.880Z,2.80
2024-01-30T04:26:14.376Z,2.80
2024-01-30T04:31:16.924Z,2.80
2024-01-30T04:36:19.439Z,2.70
2024-01-30T04:41:21.835Z,2.70
2024-01-30T04:46:24.656Z,2.70
2024-01-30T04:51:27.204Z,2.70
2024-01-30T04:56:30.180Z,2.70
2024-01-30T05:01:32.784Z,2.80
2024-01-30T05:06:35.548Z,2.70
2024-01-30T05:11:40.793Z,2.70
2024-01-30T05:16:47.782Z,2.80
2024-01-30T05:21:51.076Z,2.60
2024-01-30T05:26:53.749Z,2.60
2024-01-30T05:31:56.284Z,2.70
2024-01-30T05:36:58.865Z,2.60
2024-01-30T05:42:01.406Z,2.50
2024-01-30T05:47:04.462Z,2.50
2024-01-30T05:52:07.316Z,2.40
2024-01-30T05:57:10.309Z,2.40
2024-01-30T06:02:13.099Z,2.30
2024-01-30T06:07:16.034Z,2.20
2024-01-30T06:12:18.513Z,2.30
2024-01-30T06:17:21.148Z,2.40
2024-01-30T06:22:23.827Z,2.60
2024-01-30T06:27:26.635Z,2.80
2024-01-30T06:32:29.904Z,2.70
2024-01-30T06:37:32.562Z,2.80
2024-01-30T06:42:35.013Z,2.80
2024-01-30T06:47:37.409Z,2.90
2024-01-30T06:52:40.564Z,3.00
2024-01-30T06:57:43.433Z,3.00
2024-01-30T07:02:45.993Z,3.10
2024-01-30T07:07:48.673Z,3.10
2024-01-30T07:12:51.281Z,3.20
2024-01-30T07:17:53.831Z,3.10
2024-01-30T07:22:56.351Z,3.10
2024-01-30T07:27:58.991Z,3.10
2024-01-30T07:33:01.706Z,3.10
2024-01-30T07:38:04.446Z,3.00
2024-01-30T07:43:07.315Z,3.00
2024-01-30T07:48:09.968Z,3.10
2024-01-30T07:53:12.535Z,3.20
2024-01-30T07:58:15.266Z,3.30
2024-01-30T08:03:19.213Z,3.40
2024-01-30T08:08:21.777Z,3.60
2024-01-30T08:13:24.404Z,3.80
2024-01-30T08:18:27.548Z,4.10
2024-01-30T08:23:30.130Z,4.30
2024-01-30T08:28:32.665Z,4.30
2024-01-30T08:33:35.335Z,4.30
2024-01-30T08:38:37.925Z,4.30
2024-01-30T08:43:40.493Z,4.20
2024-01-30T08:48:43.226Z,4.20
2024-01-30T08:53:46.034Z,4.10
2024-01-30T08:58:48.796Z,3.90
2024-01-30T09:03:51.423Z,4.00
2024-01-30T09:08:53.936Z,4.10
2024-01-30T09:13:56.510Z,4.20
2024-01-30T09:18:59.086Z,4.30
2024-01-30T09:24:05.305Z,4.50
2024-01-30T09:29:07.793Z,4.60
2024-01-30T09:34:10.597Z,4.70
2024-01-30T09:39:13.216Z,4.60
2024-01-30T09:44:18.315Z,4.80
2024-01-30T09:49:21.937Z,4.90
2024-01-30T09:54:24.900Z,4.90
2024-01-30T09:59:27.693Z,5.00
2024-01-30T10:04:30.364Z,5.00
2024-01-30T10:09:34.864Z,5.10
2024-01-30T10:14:41.596Z,5.20
2024-01-30T10:19:44.295Z,5.20
2024-01-30T10:24:47.034Z,5.10
2024-01-30T10:29:50.334Z,5.20
2024-01-30T10:34:53.006Z,5.20
2024-01-30T10:39:57.312Z,5.30
2024-01-30T10:45:09.960Z,5.30
2024-01-30T10:50:12.816Z,5.40
2024-01-30T10:55:17.185Z,5.50
2024-01-30T11:00:23.653Z,5.50
2024-01-30T11:05:31.933Z,5.60
2024-01-30T11:10:47.117Z,5.50
2024-01-30T11:15:49.982Z,5.60
2024-01-30T11:20:53.386Z,5.70
2024-01-30T11:25:57.170Z,5.70
2024-01-30T11:31:08.617Z,5.70
2024-01-30T11:36:14.564Z,5.50
2024-01-30T11:41:17.447Z,5.60
2024-01-30T11:46:20.120Z,5.70
2024-01-30T11:51:22.672Z,5.80
2024-01-30T11:56:26.565Z,5.80
2024-01-30T12:01:33.019Z,5.90
2024-01-30T12:06:37.409Z,5.90
2024-01-30T12:11:48.490Z,5.80
2024-01-30T12:16:52.065Z,5.80
2024-01-30T12:22:00.743Z,5.80
2024-01-30T12:27:03.553Z,5.70
2024-01-30T12:32:06.374Z,5.60
2024-01-30T12:37:10.757Z,5.80
2024-01-30T12:42:13.755Z,5.60
2024-01-30T12:47:17.836Z,5.50
2024-01-30T12:52:22.867Z,5.70
2024-01-30T12:57:25.947Z,5.70
2024-01-30T13:02:35.908Z,5.70
2024-01-30T13:07:38.432Z,5.70
2024-01-30T13:12:41.100Z,5.60
2024-01-30T13:17:45.130Z,5.60
2024-01-30T13:22:51.059Z,5.70
2024-01-30T13:27:53.790Z,5.80
2024-01-30T13:32:56.441Z,5.90
2024-01-30T13:37:59.127Z,5.90
2024-01-30T13:43:02.298Z,5.90
2024-01-30T13:48:05.264Z,5.90
2024-01-30T13:53:07.909Z,5.80
2024-01-30T13:58:10.559Z,5.90
2024-01-30T14:03:13.568Z,5.70
2024-01-30T14:08:17.129Z,5.60
2024-01-30T14:13:19.752Z,5.50
2024-01-30T14:18:22.238Z,5.50
2024-01-30T14:23:25.470Z,5.60
2024-01-30T14:28:28.050Z,5.50
2024-01-30T14:33:30.488Z,5.40
2024-01-30T14:38:33.037Z,5.30
2024-01-30T14:43:35.604Z,5.20
2024-01-30T14:48:38.414Z,5.20
2024-01-30T14:53:41.069Z,5.20
2024-01-30T14:58:44.800Z,5.10
2024-01-30T15:03:47.485Z,5.20
2024-01-30T15:08:49.985Z,5.30
2024-01-30T15:13:52.546Z,5.20
2024-01-30T15:18:55.179Z,5.20
2024-01-30T15:23:57.853Z,5.10
2024-01-30T15:29:01.842Z,4.90
2024-01-30T15:34:04.957Z,4.80
2024-01-30T15:39:07.647Z,4.80
2024-01-30T15:44:10.301Z,4.70
2024-01-30T15:49:12.884Z,4.70
2024-01-30T15:54:15.389Z,4.70
2024-01-30T15:59:37.232Z,4.50
2024-01-30T16:04:58.532Z,4.30
2024-01-30T16:10:20.409Z,4.20
2024-01-30T16:15:44.088Z,4.00
2024-01-30T16:21:05.235Z,4.00
2024-01-30T16:26:27.823Z,4.00
2024-01-30T16:31:48.769Z,3.90
2024-01-30T16:37:10.305Z,3.90
2024-01-30T16:42:31.642Z,4.00
2024-01-30T16:47:52.608Z,4.00
2024-01-30T16:53:13.812Z,4.00
2024-01-30T16:58:35.132Z,4.00
2024-01-30T17:03:57.024Z,4.00
2024-01-30T17:09:18.094Z,4.00
2024-01-30T17:14:40.704Z,3.80
2024-01-30T17:20:02.452Z,3.80
2024-01-30T17:25:23.879Z,3.80
2024-01-30T17:30:45.226Z,3.70
2024-01-30T17:36:06.666Z,3.70
2024-01-30T17:41:27.534Z,3.70
2024-01-30T17:46:49.148Z,3.70
2024-01-30T17:52:10.347Z,3.50
2024-01-30T17:57:31.608Z,3.40
2024-01-30T18:02:53.967Z,3.30
2024-01-30T18:08:15.240Z,3.40
2024-01-30T18:13:18.174Z,3.30
2024-01-30T18:18:20.949Z,3.30
2024-01-30T18:23:23.563Z,3.30
2024-01-30T18:28:27.976Z,3.40
2024-01-30T18:33:30.447Z,3.40
2024-01-30T18:38:33.253Z,3.30
2024-01-30T18:43:36.612Z,3.30
2024-01-30T18:48:39.832Z,3.10
2024-01-30T18:53:42.631Z,3.00
2024-01-30T18:58:45.204Z,2.90
2024-01-30T19:03:48.038Z,2.90
2024-01-30T19:08:50.792Z,2.90
2024-01-30T19:13:53.374Z,2.80
2024-01-30T19:18:57.337Z,2.90
2024-01-30T19:24:01.951Z,2.90
2024-01-30T19:29:04.628Z,2.80
2024-01-30T19:34:07.443Z,2.80
2024-01-30T19:39:14.278Z,2.70
2024-01-30T19:44:16.842Z,2.70
2024-01-30T19:49:20.131Z,2.60
2024-01-30T19:54:28.740Z,2.60
2024-01-30T19:59:31.896Z,2.60
2024-01-30T20:04:35.530Z,2.60
2024-01-30T20:09:38.267Z,2.40
2024-01-30T20:14:42.241Z,2.40
2024-01-30T20:19:46.513Z,2.40
2024-01-30T20:24:52.283Z,2.40
2024-01-30T20:29:58.596Z,2.30
2024-01-30T20:35:01.120Z,2.30
2024-01-30T20:40:04.830Z,2.10
2024-01-30T20:45:08.903Z,2.20
2024-01-30T20:50:11.456Z,2.20
2024-01-30T20:55:14.197Z,2.10
2024-01-30T21:00:17.728Z,2.00
2024-01-30T21:05:23.782Z,2.00
2024-01-30T21:10:26.962Z,2.00
2024-01-30T21:15:29.606Z,2.00
2024-01-30T21:20:32.420Z,2.00
2024-01-30T21:25:35.386Z,1.90
2024-01-30T21:30:38.143Z,1.90
2024-01-30T21:35:40.633Z,1.80
2024-01-30T21:40:43.605Z,1.90
2024-01-30T21:45:46.876Z,1.90
2024-01-30T21:50:49.522Z,1.80
2024-01-30T21:55:52.226Z,1.80
2024-01-30T22:00:54.835Z,1.80
2024-01-30T22:05:57.360Z,1.80
2024-01-30T22:11:00.131Z,1.70
2024-01-30T22:16:02.793Z,1.60
2024-01-30T22:21:08.614Z,1.60
2024-01-30T22:26:11.299Z,1.60
2024-01-30T22:31:13.965Z,1.60
2024-01-30T22:36:16.712Z,1.40
2024-01-30T22:41:24.062Z,1.30
2024-01-30T22:46:26.477Z,1.30
2024-01-30T22:51:29.905Z,1.30
2024-01-30T22:56:32.568Z,1.20
2024-01-30T23:01:35.695Z,1.30
2024-01-30T23:06:38.321Z,1.30
2024-01-30T23:11:41.819Z,1.30
2024-01-30T23:16:44.349Z,1.30
2024-01-30T23:21:46.841Z,1.20
2024-01-30T23:26:49.222Z,1.20
2024-01-30T23:31:52.417Z,1.10
2024-01-30T23:36:55.119Z,1.20
2024-01-30T23:41:57.715Z,1.10
2024-01-30T23:47:00.411Z,1.10
2024-01-30T23:52:03.244Z,1.20
2024-01-30T23:57:05.889Z,1.20
